Fentange, Luxembourg
Current Conditions -  °F | °C
As of 11:50 AM on Wednesday 22 Oct 2014 (Local Time) from ELLX Reporting Station
Broken Clouds Broken Clouds  
Wind Chill: 40°   Ceiling: 2700
Heat Index: 46°   Visibility: 6mi
Dew Point: 37°   Wind: 16mph
Humidity: 71%   Direction: 290°WNW
Pressure: 30.12"   Gusts: NA
Location:  49.56°N, 6.15°E
Report Text: ELLX 220950Z 29014KT 250V330 9999 FEW022 BKN027 08/03 Q1020 NOSIG
Loading
Personal Weather Stations






























Interactive Weather Map
Tropical Storm Tracking
New forecast layout! Learn more

10-Day Weather Forecast

Advertisements
Track Severe Weather on mobile